Time;durP1;ratioP1;P1;durP2;ratioP2;P2;SDS_P1;SDS_P2;PMS_P1;PMS_P2;Temp;Humidity;BMP_temperature;BMP_pressure;BME280_temperature;BME280_humidity;BME280_pressure;Samples;Min_cycle;Max_cycle;Signal;HPM_P1;HPM_P2
2023/05/11 00:01:41;;;;;;;26.30;23.60;;;;;;;12.56;100.00;101316.91;5071114;28;20391;-66
2023/05/11 00:04:07;;;;;;;23.85;21.42;;;;;;;12.45;100.00;101304.28;5070997;28;20016;-66
2023/05/11 00:06:33;;;;;;;24.90;22.45;;;;;;;12.55;100.00;101315.22;5070900;28;20028;-66
2023/05/11 00:08:58;;;;;;;25.08;22.60;;;;;;;12.50;100.00;101303.03;5072620;28;20463;-66
2023/05/11 00:11:23;;;;;;;25.52;23.13;;;;;;;12.47;100.00;101305.03;5072906;28;20032;-67
2023/05/11 00:13:51;;;;;;;25.38;23.00;;;;;;;12.46;100.00;101306.84;5073896;28;20024;-66
2023/05/11 00:16:17;;;;;;;25.30;22.75;;;;;;;12.37;100.00;101299.41;5074629;28;20028;-66
2023/05/11 00:18:42;;;;;;;27.30;23.52;;;;;;;12.37;100.00;101303.91;5074798;28;20573;-66
2023/05/11 00:21:08;;;;;;;24.42;21.92;;;;;;;12.32;100.00;101293.50;5074899;28;20020;-66
2023/05/11 00:23:33;;;;;;;24.60;22.20;;;;;;;12.38;100.00;101297.59;5074181;28;20025;-67
2023/05/11 00:26:02;;;;;;;27.42;24.67;;;;;;;12.37;100.00;101299.41;5074468;28;20380;-67
2023/05/11 00:28:27;;;;;;;25.30;22.85;;;;;;;12.37;100.00;101288.75;5072998;28;20076;-66
2023/05/11 00:30:56;;;;;;;25.70;23.15;;;;;;;12.26;100.00;101305.44;5073989;28;20102;-66
2023/05/11 00:33:22;;;;;;;25.38;22.73;;;;;;;12.35;100.00;101301.31;5074127;28;20025;-67
2023/05/11 00:35:48;;;;;;;26.38;23.65;;;;;;;12.23;100.00;101304.75;5073001;28;20341;-66
2023/05/11 00:38:15;;;;;;;26.38;23.67;;;;;;;12.28;100.00;101313.34;5074027;28;20031;-66
2023/05/11 00:40:41;;;;;;;28.20;25.33;;;;;;;12.18;100.00;101315.75;5074509;28;20373;-66
2023/05/11 00:43:07;;;;;;;28.63;25.55;;;;;;;12.19;100.00;101317.44;5074313;28;20039;-67
2023/05/11 00:45:36;;;;;;;27.77;25.05;;;;;;;12.13;100.00;101315.16;5072940;28;20105;-66
2023/05/11 00:48:04;;;;;;;29.95;26.95;;;;;;;12.12;100.00;101312.56;5073876;28;20059;-66
2023/05/11 00:50:30;;;;;;;29.92;27.02;;;;;;;12.23;100.00;101312.75;5074289;28;20023;-66
2023/05/11 00:52:56;;;;;;;31.48;28.13;;;;;;;12.11;100.00;101317.06;5073566;28;20025;-66
2023/05/11 00:55:22;;;;;;;30.55;27.27;;;;;;;12.11;100.00;101311.72;5072967;28;20464;-65
2023/05/11 00:57:48;;;;;;;31.42;28.10;;;;;;;12.09;100.00;101308.31;5073875;28;20027;-66
2023/05/11 01:00:16;;;;;;;30.85;27.60;;;;;;;12.12;100.00;101321.44;5073984;28;20063;-66
2023/05/11 01:02:41;;;;;;;32.65;29.15;;;;;;;12.11;100.00;101310.88;5072448;28;20032;-66
2023/05/11 01:05:07;;;;;;;32.83;29.40;;;;;;;12.13;100.00;101323.16;5073937;28;20029;-66
2023/05/11 01:07:36;;;;;;;33.33;29.30;;;;;;;12.15;100.00;101321.25;5073174;28;20032;-66
2023/05/11 01:10:29;;;;;;;37.03;30.13;;;;;;;12.21;100.00;101322.69;5072600;28;20037;-66
2023/05/11 01:13:17;;;;;;;33.72;29.88;;;;;;;12.18;100.00;101323.75;5072345;28;20052;-66
2023/05/11 01:15:42;;;;;;;33.00;29.35;;;;;;;12.18;100.00;101325.56;5073591;28;20036;-67
2023/05/11 01:18:17;;;;;;;31.23;27.55;;;;;;;12.15;100.00;101320.41;5073452;28;20051;-66
2023/05/11 01:20:45;;;;;;;35.05;29.10;;;;;;;12.14;100.00;101313.34;5072049;28;20114;-66
2023/05/11 01:23:29;;;;;;;32.30;28.88;;;;;;;12.19;100.00;101319.25;5073569;28;20108;-66
2023/05/11 01:26:20;;;;;;;33.78;29.88;;;;;;;12.24;100.00;101319.84;5074568;28;20028;-66
2023/05/11 01:28:54;;;;;;;34.22;30.20;;;;;;;12.23;100.00;101318.94;5073149;28;20408;-66
2023/05/11 01:31:20;;;;;;;33.03;29.58;;;;;;;12.20;100.00;101324.47;5073379;28;20073;-66
2023/05/11 01:34:00;;;;;;;32.55;29.10;;;;;;;12.22;100.00;101314.59;5073318;28;20434;-66
2023/05/11 01:36:33;;;;;;;39.95;30.88;;;;;;;12.18;100.00;101325.56;5072843;28;20036;-66
2023/05/11 01:39:03;;;;;;;34.83;30.90;;;;;;;12.17;100.00;101322.00;5106028;28;20024;-66
2023/05/11 01:41:32;;;;;;;35.17;31.30;;;;;;;12.18;100.00;101329.06;5072995;28;20086;-66
2023/05/11 01:44:02;;;;;;;35.10;31.30;;;;;;;12.13;100.00;101319.63;5071630;28;20028;-66
2023/05/11 01:46:31;;;;;;;38.08;32.70;;;;;;;12.22;100.00;101329.72;5070852;28;20582;-66
2023/05/11 01:48:58;;;;;;;;;;;;;;;12.31;100.00;101328.31;5073632;28;20028;-66
2023/05/11 01:51:26;;;;;;;36.90;32.80;;;;;;;12.21;100.00;101325.38;5071829;28;20014;-67
2023/05/11 01:53:53;;;;;;;37.83;33.83;;;;;;;12.19;100.00;101312.09;5071193;28;20028;-66
2023/05/11 01:56:21;;;;;;;39.88;33.65;;;;;;;12.20;100.00;101323.63;5072566;28;20522;-67
2023/05/11 01:58:49;;;;;;;36.15;32.38;;;;;;;12.20;100.00;101327.16;5072631;28;20035;-66
2023/05/11 02:01:16;;;;;;;37.90;33.80;;;;;;;12.17;100.00;101332.66;5070854;28;20502;-66
2023/05/11 02:03:45;;;;;;;38.35;33.00;;;;;;;12.24;100.00;101326.03;5071421;28;20055;-66
2023/05/11 02:06:14;;;;;;;35.95;32.05;;;;;;;12.15;100.00;101329.25;5072912;28;20042;-66
2023/05/11 02:08:40;;;;;;;34.05;30.40;;;;;;;12.16;100.00;101322.97;5072337;28;20028;-67
2023/05/11 02:11:07;;;;;;;40.95;34.70;;;;;;;12.15;100.00;101323.94;5072263;28;20070;-66
2023/05/11 02:13:35;;;;;;;39.25;34.83;;;;;;;12.16;100.00;101311.44;5072244;28;20202;-66
2023/05/11 02:16:02;;;;;;;39.58;35.08;;;;;;;12.15;100.00;101317.75;5072133;28;20093;-66
2023/05/11 02:18:29;;;;;;;41.53;35.17;;;;;;;12.08;100.00;101311.06;5070690;28;20036;-66
2023/05/11 02:20:58;;;;;;;41.67;36.08;;;;;;;12.14;100.00;101310.69;5071974;28;20396;-66
2023/05/11 02:23:26;;;;;;;39.20;34.80;;;;;;;12.08;100.00;101303.91;5070499;28;20086;-66
2023/05/11 02:25:53;;;;;;;43.38;36.63;;;;;;;12.04;100.00;101313.91;5071771;28;20038;-66
2023/05/11 02:28:19;;;;;;;40.90;36.58;;;;;;;12.02;100.00;101304.28;5071420;28;20445;-66
2023/05/11 02:30:46;;;;;;;43.10;37.38;;;;;;;12.04;100.00;101311.25;5104091;28;20146;-66
2023/05/11 02:33:19;;;;;;;41.17;36.22;;;;;;;11.99;100.00;101312.47;5070181;28;20062;-66
2023/05/11 02:35:46;;;;;;;41.63;36.28;;;;;;;11.96;100.00;101315.34;5070718;28;20039;-66
2023/05/11 02:38:16;;;;;;;44.15;37.25;;;;;;;11.89;100.00;101304.19;5071412;28;20031;-66
2023/05/11 02:40:48;;;;;;;44.03;39.25;;;;;;;11.98;100.00;101310.78;5072014;28;20033;-66
2023/05/11 02:43:23;;;;;;;47.83;40.22;;;;;;;12.00;100.00;101312.41;5071452;28;20032;-67
2023/05/11 02:45:58;;;;;;;46.55;39.80;;;;;;;12.03;100.00;101312.22;5071717;28;20055;-67
2023/05/11 02:48:30;;;;;;;46.22;40.20;;;;;;;11.98;100.00;101318.78;5071759;28;20032;-66
2023/05/11 02:51:01;;;;;;;46.33;39.40;;;;;;;12.01;100.00;101307.94;5071681;28;20058;-67
2023/05/11 02:53:30;;;;;;;47.33;41.88;;;;;;;12.02;100.00;101312.28;5071352;28;20546;-66
2023/05/11 02:55:56;;;;;;;49.08;42.15;;;;;;;12.03;100.00;101306.88;5070189;28;20028;-66
2023/05/11 02:58:24;;;;;;;46.70;40.38;;;;;;;12.03;100.00;101303.38;5070102;28;20024;-67
2023/05/11 03:00:50;;;;;;;46.53;41.20;;;;;;;11.99;100.00;101312.47;5071454;28;20479;-66
2023/05/11 03:03:18;;;;;;;50.88;41.70;;;;;;;11.91;100.00;101310.31;5069964;28;20050;-67
2023/05/11 03:05:43;;;;;;;46.35;41.28;;;;;;;11.92;100.00;101311.16;5070228;28;20491;-66
2023/05/11 03:08:09;;;;;;;47.20;42.00;;;;;;;11.92;100.00;101311.16;5071562;28;20027;-66
2023/05/11 03:10:37;;;;;;;47.90;41.50;;;;;;;11.77;100.00;101316.44;5070909;28;20035;-67
2023/05/11 03:13:04;;;;;;;47.50;41.55;;;;;;;11.87;100.00;101315.91;5069793;28;20038;-67
2023/05/11 03:15:30;;;;;;;45.60;40.65;;;;;;;11.86;100.00;101320.38;5069754;28;20056;-67
2023/05/11 03:18:00;;;;;;;45.05;40.05;;;;;;;11.79;100.00;101326.97;5070651;28;20048;-67
2023/05/11 03:20:26;;;;;;;45.33;39.63;;;;;;;11.68;100.00;101324.13;5070219;28;20099;-66
2023/05/11 03:22:52;;;;;;;48.05;41.67;;;;;;;11.82;100.00;101330.34;5071023;28;20021;-66
2023/05/11 03:25:21;;;;;;;44.70;39.95;;;;;;;11.82;100.00;101324.13;5071465;28;20510;-66
2023/05/11 03:27:49;;;;;;;52.80;43.00;;;;;;;11.66;100.00;101328.69;5070919;28;20060;-66
2023/05/11 03:30:16;;;;;;;47.17;39.95;;;;;;;11.64;100.00;101314.59;5071675;28;20024;-66
2023/05/11 03:32:42;;;;;;;44.13;39.53;;;;;;;11.66;100.00;101328.69;5070351;28;20108;-67
2023/05/11 03:35:08;;;;;;;42.80;38.33;;;;;;;11.59;100.00;101321.06;5070392;28;20450;-67
2023/05/11 03:37:36;;;;;;;43.17;38.53;;;;;;;11.60;100.00;101321.91;5069424;28;20016;-67
2023/05/11 03:40:03;;;;;;;46.15;37.70;;;;;;;11.58;100.00;101324.66;5070315;28;20377;-67
2023/05/11 03:42:31;;;;;;;40.85;36.40;;;;;;;11.56;100.00;101323.06;5071883;28;20023;-66
2023/05/11 03:44:59;;;;;;;43.15;37.22;;;;;;;11.56;100.00;101328.41;5074458;28;20117;-66
2023/05/11 03:47:27;;;;;;;246.07;48.45;;;;;;;11.47;100.00;101316.47;5075276;28;20031;-66
2023/05/11 03:49:54;;;;;;;42.00;37.17;;;;;;;11.48;100.00;101325.31;5075429;28;20019;-67
2023/05/11 03:52:20;;;;;;;45.85;36.47;;;;;;;11.42;100.00;101323.03;5074778;28;20040;-67
2023/05/11 03:54:46;;;;;;;81.78;40.83;;;;;;;11.39;100.00;101320.53;5107992;28;20103;-66
2023/05/11 03:57:13;;;;;;;45.55;36.75;;;;;;;11.35;100.00;101320.72;5073887;28;20031;-67
2023/05/11 03:59:39;;;;;;;42.13;36.50;;;;;;;11.34;100.00;101312.81;5075155;28;20031;-66
2023/05/11 04:02:05;;;;;;;60.15;46.65;;;;;;;11.42;100.00;101325.69;5090764;28;20025;-67
2023/05/11 04:04:31;;;;;;;46.70;40.38;;;;;;;11.37;100.00;101315.28;5074794;28;20047;-66
2023/05/11 04:06:57;;;;;;;50.47;42.85;;;;;;;11.35;100.00;101315.41;5106889;28;20035;-67
2023/05/11 04:09:23;;;;;;;54.70;45.70;;;;;;;11.45;100.00;101307.72;5074794;28;20024;-66
2023/05/11 04:11:49;;;;;;;59.75;48.40;;;;;;;11.42;100.00;101315.88;5074457;28;20446;-66
2023/05/11 04:14:16;;;;;;;64.88;49.53;;;;;;;11.57;100.00;101314.97;5074951;28;20025;-67
2023/05/11 04:16:42;;;;;;;62.47;49.58;;;;;;;11.47;100.00;101305.81;5057154;28;20082;-67
2023/05/11 04:19:07;;;;;;;59.35;47.10;;;;;;;11.51;100.00;101306.50;5074817;28;20025;-67
2023/05/11 04:21:33;;;;;;;56.72;48.50;;;;;;;11.53;100.00;101313.44;5073649;28;20021;-67
2023/05/11 04:23:58;;;;;;;66.60;50.97;;;;;;;11.57;100.00;101314.97;5074729;28;20480;-67
2023/05/11 04:26:26;;;;;;;65.05;50.58;;;;;;;11.53;100.00;101323.22;5074172;28;20029;-67
2023/05/11 04:28:52;;;;;;;65.55;51.33;;;;;;;11.61;100.00;101318.28;5074457;28;20094;-66
2023/05/11 04:31:17;;;;;;;67.55;51.05;;;;;;;11.61;100.00;101326.28;5073195;28;20418;-66
2023/05/11 04:33:42;;;;;;;65.85;51.25;;;;;;;11.65;100.00;101321.63;5073243;28;20025;-67
2023/05/11 04:36:08;;;;;;;64.07;52.72;;;;;;;11.53;100.00;101310.78;5074632;28;20081;-67
2023/05/11 04:38:33;;;;;;;67.80;52.35;;;;;;;11.54;100.00;101317.81;5082037;28;20035;-66
2023/05/11 04:41:06;;;;;;;65.75;52.10;;;;;;;11.59;100.00;101323.72;5093197;28;20031;-66
2023/05/11 04:43:31;;;;;;;65.45;51.97;;;;;;;11.60;100.00;101329.91;5094544;28;20411;-66
2023/05/11 04:45:58;;;;;;;66.95;52.47;;;;;;;11.65;100.00;101326.94;5091733;28;20051;-66
2023/05/11 04:48:25;;;;;;;67.07;52.88;;;;;;;11.62;100.00;101322.69;5074007;28;20024;-66
2023/05/11 04:50:50;;;;;;;71.72;53.80;;;;;;;11.60;100.00;101328.09;5074337;28;20048;-66
2023/05/11 04:53:16;;;;;;;71.38;53.63;;;;;;;11.71;100.00;101330.13;5073767;28;20498;-66
2023/05/11 04:55:41;;;;;;;75.20;54.30;;;;;;;11.66;100.00;101329.53;5105777;28;20028;-66
2023/05/11 04:58:06;;;;;;;70.90;53.50;;;;;;;11.72;100.00;101342.50;5074015;28;20025;-66
2023/05/11 05:00:32;;;;;;;66.78;52.88;;;;;;;11.82;100.00;101342.78;5106604;28;20028;-66
2023/05/11 05:02:57;;;;;;;64.72;50.20;;;;;;;11.77;100.00;101342.22;5073635;28;20146;-66
2023/05/11 05:05:23;;;;;;;64.20;50.38;;;;;;;11.79;100.00;101349.19;5073934;28;20383;-66
2023/05/11 05:07:50;;;;;;;65.15;51.40;;;;;;;11.76;100.00;101349.34;5073251;28;20021;-66
2023/05/11 05:10:16;;;;;;;68.22;50.80;;;;;;;11.78;100.00;101354.59;5073417;28;20025;-67
2023/05/11 05:12:41;;;;;;;68.95;49.25;;;;;;;11.82;100.00;101345.44;5073991;28;20370;-66
2023/05/11 05:15:07;;;;;;;62.35;49.10;;;;;;;11.87;100.00;101353.22;5073575;28;20028;-66
2023/05/11 05:17:32;;;;;;;65.60;49.38;;;;;;;11.86;100.00;101354.19;5072348;28;20039;-66
2023/05/11 05:19:58;;;;;;;62.45;48.47;;;;;;;11.91;100.00;101355.63;5073049;28;20030;-66
2023/05/11 05:22:24;;;;;;;61.10;49.55;;;;;;;11.93;100.00;101364.38;5072401;28;20020;-66
2023/05/11 05:24:50;;;;;;;66.95;48.13;;;;;;;11.94;100.00;101367.88;5105468;28;20051;-66
2023/05/11 05:27:15;;;;;;;60.72;47.90;;;;;;;11.88;100.00;101361.09;5105872;28;20021;-66
2023/05/11 05:29:41;;;;;;;62.40;47.33;;;;;;;11.89;100.00;101352.19;5055258;28;20041;-66
2023/05/11 05:32:06;;;;;;;65.10;48.75;;;;;;;11.95;100.00;101365.13;5073064;28;20357;-66
2023/05/11 05:34:34;;;;;;;64.78;49.65;;;;;;;12.01;100.00;101361.25;5072072;28;20307;-67
2023/05/11 05:36:59;;;;;;;65.85;48.38;;;;;;;12.04;100.00;101374.38;5071413;28;20376;-67
2023/05/11 05:39:24;;;;;;;63.67;48.85;;;;;;;12.17;100.00;101366.47;5072989;28;20107;-66
2023/05/11 05:41:52;;;;;;;60.65;48.58;;;;;;;12.25;100.00;101373.06;5072760;28;20021;-67
2023/05/11 05:44:20;;;;;;;67.22;47.80;;;;;;;12.26;100.00;101365.91;5073103;28;20082;-67
2023/05/11 05:46:45;;;;;;;62.70;48.45;;;;;;;12.25;100.00;101370.41;5071781;28;20032;-67
2023/05/11 05:49:11;;;;;;;62.72;48.08;;;;;;;12.20;100.00;101367.16;5072407;28;20081;-66
2023/05/11 05:51:36;;;;;;;65.47;47.95;;;;;;;12.22;100.00;101370.59;5072073;28;20032;-67
2023/05/11 05:54:02;;;;;;;65.53;49.03;;;;;;;12.24;100.00;101374.03;5073110;28;20174;-67
2023/05/11 05:56:27;;;;;;;62.17;47.70;;;;;;;12.17;100.00;101371.81;5071395;28;20056;-67
2023/05/11 05:58:52;;;;;;;68.35;48.15;;;;;;;12.15;100.00;101374.59;5071503;28;20029;-67
2023/05/11 06:01:18;;;;;;;69.65;49.55;;;;;;;12.28;100.00;101377.34;5072400;28;20073;-66
2023/05/11 06:03:50;;;;;;;67.25;50.63;;;;;;;12.26;100.00;101387.25;5072655;28;20495;-67
2023/05/11 06:06:16;;;;;;;75.28;53.78;;;;;;;12.19;100.00;101385.91;5069689;28;20383;-66
2023/05/11 06:08:42;;;;;;;77.47;53.20;;;;;;;12.24;100.00;101383.84;5072000;28;20020;-66
2023/05/11 06:11:07;;;;;;;67.93;52.60;;;;;;;12.21;100.00;101382.22;5072381;28;20020;-66
2023/05/11 06:13:33;;;;;;;76.60;54.50;;;;;;;12.24;100.00;101378.50;5070436;28;20025;-66
2023/05/11 06:16:00;;;;;;;75.43;53.50;;;;;;;12.34;100.00;101392.97;5072278;28;20029;-66
2023/05/11 06:18:26;;;;;;;73.05;53.38;;;;;;;12.37;100.00;101394.59;5072101;28;20478;-66
2023/05/11 06:20:51;;;;;;;76.03;54.15;;;;;;;12.38;100.00;101394.53;5070479;28;20056;-66
2023/05/11 06:23:17;;;;;;;76.72;55.40;;;;;;;12.41;100.00;101397.00;5071673;28;20032;-66
2023/05/11 06:25:42;;;;;;;75.43;54.17;;;;;;;12.37;100.00;101392.78;5071720;28;20490;-66
2023/05/11 06:28:08;;;;;;;77.90;56.40;;;;;;;12.46;100.00;101407.38;5070739;28;20047;-66
2023/05/11 06:30:33;;;;;;;75.10;54.78;;;;;;;12.38;100.00;101402.53;5070459;28;20051;-66
2023/05/11 06:33:01;;;;;;;73.97;54.63;;;;;;;12.42;100.00;101400.50;5069215;28;20138;-66
2023/05/11 06:35:26;;;;;;;77.95;58.00;;;;;;;12.33;100.00;101395.75;5071898;28;20028;-66
2023/05/11 06:37:52;;;;;;;78.82;56.20;;;;;;;12.31;100.00;101393.16;5070676;28;20025;-66
2023/05/11 06:40:17;;;;;;;76.80;55.67;;;;;;;12.31;100.00;101397.66;5071712;28;20051;-66
2023/05/11 06:42:43;;;;;;;73.72;54.60;;;;;;;12.33;100.00;101396.59;5070770;28;20040;-67
2023/05/11 06:45:08;;;;;;;78.13;55.42;;;;;;;12.33;100.00;101401.09;5070780;28;20024;-66
2023/05/11 06:47:34;;;;;;;81.07;56.15;;;;;;;12.44;100.00;101404.81;5071623;28;20062;-66
2023/05/11 06:49:59;;;;;;;85.55;56.65;;;;;;;12.31;100.00;101398.50;5071786;28;20573;-66
2023/05/11 06:52:25;;;;;;;81.53;57.60;;;;;;;12.46;100.00;101405.53;5104078;28;20421;-66
2023/05/11 06:54:50;;;;;;;76.43;55.92;;;;;;;12.44;100.00;101412.81;5104593;28;20028;-66
2023/05/11 06:57:16;;;;;;;75.00;55.80;;;;;;;12.38;100.00;101417.66;5071683;28;20535;-66
2023/05/11 06:59:42;;;;;;;85.22;57.33;;;;;;;12.42;100.00;101416.53;5071687;28;20491;-66
2023/05/11 07:02:10;;;;;;;79.03;55.50;;;;;;;12.48;100.00;101414.31;5103890;28;20032;-67
2023/05/11 07:04:38;;;;;;;81.15;56.85;;;;;;;12.39;100.00;101420.22;5069535;28;20522;-66
2023/05/11 07:07:03;;;;;;;82.57;57.75;;;;;;;12.41;100.00;101421.00;5066447;28;20085;-66
2023/05/11 07:09:28;;;;;;;86.97;60.05;;;;;;;12.37;100.00;101418.59;5071608;28;20021;-66
2023/05/11 07:11:56;;;;;;;93.03;62.38;;;;;;;12.41;100.00;101423.69;5069847;28;20464;-66
2023/05/11 07:14:22;;;;;;;89.03;63.22;;;;;;;12.44;100.00;101425.25;5071627;28;20040;-66
2023/05/11 07:16:51;;;;;;;99.72;66.40;;;;;;;12.41;100.00;101423.69;5071304;28;20029;-66
2023/05/11 07:19:19;;;;;;;107.53;68.28;;;;;;;12.38;100.00;101421.19;5071362;28;20410;-66
2023/05/11 07:21:45;;;;;;;105.57;71.28;;;;;;;12.38;100.00;101430.97;5102679;28;20024;-66
2023/05/11 07:24:10;;;;;;;112.78;70.93;;;;;;;12.39;100.00;101422.06;5071503;28;20089;-66
2023/05/11 07:26:35;;;;;;;111.38;72.88;;;;;;;12.46;100.00;101421.56;5071369;28;20031;-66
2023/05/11 07:29:04;;;;;;;114.57;71.55;;;;;;;12.41;100.00;101428.13;5071380;28;20127;-66
2023/05/11 07:31:29;;;;;;;116.82;73.00;;;;;;;12.31;100.00;101414.50;5070139;28;20111;-65
2023/05/11 07:33:55;;;;;;;109.50;70.35;;;;;;;12.35;100.00;101418.69;5071122;28;20456;-65
2023/05/11 07:36:20;;;;;;;111.40;71.00;;;;;;;12.39;100.00;101424.72;5070953;28;20031;-65
2023/05/11 07:38:48;;;;;;;113.65;71.82;;;;;;;12.42;100.00;101428.03;5069585;28;20107;-65
2023/05/11 07:41:14;;;;;;;108.40;71.78;;;;;;;12.42;100.00;101428.03;5103481;28;20494;-65
2023/05/11 07:43:40;;;;;;;112.63;72.13;;;;;;;12.44;100.00;101427.94;5071478;28;20020;-65
2023/05/11 07:46:06;;;;;;;110.60;70.20;;;;;;;12.37;100.00;101431.94;5071288;28;20024;-65
2023/05/11 07:48:31;;;;;;;112.38;73.07;;;;;;;12.28;100.00;101426.22;5067974;28;20029;-65
2023/05/11 07:50:57;;;;;;;115.25;70.95;;;;;;;12.22;100.00;101425.75;5069289;28;20016;-65
2023/05/11 07:53:22;;;;;;;117.75;73.22;;;;;;;12.27;100.00;101437.84;5068876;28;20104;-65
2023/05/11 07:55:47;;;;;;;119.47;74.95;;;;;;;12.32;100.00;101440.22;5069180;28;20032;-66
2023/05/11 07:58:16;;;;;;;120.30;75.13;;;;;;;12.35;100.00;101442.69;5069156;28;20056;-65
2023/05/11 08:00:41;;;;;;;127.88;77.25;;;;;;;12.41;100.00;101437.00;5069269;28;20036;-65
2023/05/11 08:03:07;;;;;;;126.22;77.13;;;;;;;12.48;100.00;101445.50;5102672;28;20395;-65
2023/05/11 08:05:36;;;;;;;128.32;77.18;;;;;;;12.53;100.00;101442.53;5071297;28;20103;-64
2023/05/11 08:08:01;;;;;;;119.63;75.78;;;;;;;12.26;100.00;101416.59;5070674;28;20020;-64
2023/05/11 08:10:27;;;;;;;115.57;74.93;;;;;;;12.42;100.00;101449.38;5071102;28;20020;-65
2023/05/11 08:12:54;;;;;;;117.68;76.72;;;;;;;12.52;100.00;101440.81;5071017;28;20039;-65
2023/05/11 08:15:20;;;;;;;121.85;76.82;;;;;;;12.51;100.00;101450.63;5103882;28;20036;-65
2023/05/11 08:17:45;;;;;;;127.65;78.22;;;;;;;12.48;100.00;101438.34;5103061;28;20040;-65
2023/05/11 08:20:11;;;;;;;122.32;79.80;;;;;;;12.56;100.00;101458.34;5103848;28;20112;-64
2023/05/11 08:22:39;;;;;;;128.85;81.00;;;;;;;12.56;100.00;101447.66;5070432;28;20391;-65
2023/05/11 08:25:05;;;;;;;126.32;79.70;;;;;;;12.52;100.00;101456.81;5071091;28;20387;-65
2023/05/11 08:27:30;;;;;;;127.07;82.28;;;;;;;12.58;100.00;101441.28;5070915;28;20032;-65
2023/05/11 08:29:56;;;;;;;126.78;77.03;;;;;;;12.64;100.00;101456.06;5104669;28;20048;-64
2023/05/11 08:32:21;;;;;;;117.22;77.80;;;;;;;12.69;100.00;101454.81;5074258;28;20059;-65
2023/05/11 08:34:47;;;;;;;120.40;77.57;;;;;;;12.66;100.00;101444.34;5074640;28;20429;-65
2023/05/11 08:37:12;;;;;;;113.28;74.32;;;;;;;12.74;100.00;101449.22;5074156;28;20111;-65
2023/05/11 08:39:37;;;;;;;115.18;76.28;;;;;;;12.78;100.00;101449.88;5106846;28;20099;-65
2023/05/11 08:42:05;;;;;;;119.55;75.80;;;;;;;12.76;100.00;101455.28;5074376;28;20479;-64
2023/05/11 08:44:36;;;;;;;124.35;76.25;;;;;;;12.76;100.00;101449.97;5074487;28;20025;-65
2023/05/11 08:47:04;;;;;;;119.47;77.05;;;;;;;12.79;100.00;101443.56;5072847;28;20017;-65
2023/05/11 08:49:32;;;;;;;125.70;77.45;;;;;;;12.86;100.00;101448.44;5074267;28;20023;-65
2023/05/11 08:51:58;;;;;;;111.63;75.00;;;;;;;12.89;100.00;101456.25;5073436;28;20044;-65
2023/05/11 08:54:24;;;;;;;122.18;77.93;;;;;;;12.94;100.00;101454.16;5074183;28;20032;-65
2023/05/11 08:56:53;;;;;;;120.30;77.57;;;;;;;13.00;100.00;101460.03;5056273;28;20028;-65
2023/05/11 08:59:19;;;;;;;111.45;74.82;;;;;;;12.95;100.00;101465.69;5073200;28;20024;-65
2023/05/11 09:01:44;;;;;;;112.43;74.60;;;;;;;12.87;100.00;101457.31;5072549;28;20038;-65
2023/05/11 09:04:11;;;;;;;116.35;76.40;;;;;;;12.96;100.00;101462.91;5073616;28;20479;-64
2023/05/11 09:06:38;;;;;;;116.45;76.00;;;;;;;13.02;100.00;101467.00;5068147;28;20042;-64
2023/05/11 09:09:04;;;;;;;115.75;75.00;;;;;;;12.99;100.00;101453.00;5073329;28;20056;-64
2023/05/11 09:11:32;;;;;;;115.60;77.22;;;;;;;13.01;100.00;101465.31;5073047;28;20098;-64
2023/05/11 09:14:00;;;;;;;124.35;79.75;;;;;;;13.09;100.00;101465.69;5072678;28;20028;-64
2023/05/11 09:16:28;;;;;;;121.15;78.53;;;;;;;13.33;100.00;101459.75;5072850;28;20040;-64
2023/05/11 09:18:59;;;;;;;116.55;78.20;;;;;;;13.49;100.00;101465.78;5071123;28;20020;-64
2023/05/11 09:21:24;;;;;;;115.57;76.22;;;;;;;13.55;100.00;101461.88;5071810;28;20500;-65
2023/05/11 09:23:50;;;;;;;114.95;75.13;;;;;;;13.64;100.00;101464.78;5104254;28;20051;-65
2023/05/11 09:26:19;;;;;;;109.43;74.07;;;;;;;13.63;100.00;101470.25;5071468;28;20020;-64
2023/05/11 09:29:05;;;;;;;111.88;74.93;;;;;;;13.69;100.00;101466.31;5070770;28;20237;-65
2023/05/11 09:31:45;;;;;;;106.35;72.22;;;;;;;13.55;100.00;101461.88;5104573;27;20028;-64
2023/05/11 09:34:12;;;;;;;103.85;70.80;;;;;;;13.45;100.00;101469.63;5105370;28;20021;-64
2023/05/11 09:36:38;;;;;;;107.63;72.07;;;;;;;13.44;100.00;101469.72;5072130;28;20040;-64
2023/05/11 09:39:06;;;;;;;114.25;76.45;;;;;;;13.43;100.00;101463.53;5105349;28;20029;-65
2023/05/11 09:41:31;;;;;;;116.22;76.28;;;;;;;13.35;100.00;101461.38;5071829;28;20032;-65
2023/05/11 09:44:15;;;;;;;116.78;78.95;;;;;;;13.41;100.00;101473.44;5071316;28;20456;-65
2023/05/11 09:46:43;;;;;;;117.75;75.85;;;;;;;13.44;100.00;101470.56;5071134;28;20043;-65
2023/05/11 09:49:10;;;;;;;112.55;75.82;;;;;;;13.49;100.00;101467.63;5071160;28;20502;-65
2023/05/11 09:51:39;;;;;;;113.88;74.55;;;;;;;13.51;100.00;101463.03;5070843;28;20087;-65
2023/05/11 09:54:19;;;;;;;119.32;75.32;;;;;;;13.51;100.00;101479.06;5070989;28;20036;-64
2023/05/11 09:56:49;;;;;;;110.28;74.80;;;;;;;13.41;100.00;101481.47;5071820;28;20039;-65
2023/05/11 09:59:16;;;;;;;110.30;73.00;;;;;;;13.37;99.86;101479.97;5070245;28;20026;-64
2023/05/11 10:01:42;;;;;;;106.72;72.25;;;;;;;13.30;100.00;101482.19;5070476;28;20550;-64
2023/05/11 10:04:08;;;;;;;110.63;73.20;;;;;;;13.38;100.00;101478.97;5054476;28;20085;-64
2023/05/11 10:06:52;;;;;;;107.38;72.68;;;;;;;13.45;100.00;101474.97;5070249;28;20028;-64
2023/05/11 10:09:24;;;;;;;108.47;71.38;;;;;;;13.45;100.00;101468.78;5070917;28;20021;-64
2023/05/11 10:11:50;;;;;;;109.00;72.38;;;;;;;13.46;100.00;101473.16;5072267;28;20019;-64
2023/05/11 10:14:17;;;;;;;100.53;71.80;;;;;;;13.52;100.00;101473.59;5072061;28;20398;-64
2023/05/11 10:16:49;;;;;;;107.65;73.13;;;;;;;13.47;100.00;101467.72;5071100;28;20033;-65
2023/05/11 10:19:15;;;;;;;100.35;69.47;;;;;;;13.48;100.00;101474.78;5070766;28;20070;-65
2023/05/11 10:21:41;;;;;;;102.75;69.25;;;;;;;13.50;99.06;101478.22;5071231;28;20039;-64
2023/05/11 10:24:07;;;;;;;94.72;66.63;;;;;;;13.53;98.91;101477.13;5071903;28;20028;-64
2023/05/11 10:26:32;;;;;;;93.88;64.13;;;;;;;13.58;97.01;101483.03;5070983;28;20035;-65
2023/05/11 10:28:59;;;;;;;96.53;65.45;;;;;;;13.73;98.58;101476.69;5071628;28;20407;-64
2023/05/11 10:31:25;;;;;;;95.15;64.63;;;;;;;13.84;98.29;101479.50;5070424;28;20071;-64
2023/05/11 10:33:52;;;;;;;89.65;62.88;;;;;;;14.08;98.96;101474.31;5071951;28;20043;-64
2023/05/11 10:36:17;;;;;;;96.80;65.85;;;;;;;14.02;96.49;101471.22;5071549;28;20052;-64
2023/05/11 10:38:45;;;;;;;95.85;65.80;;;;;;;13.98;97.60;101472.38;5070763;28;20056;-64
2023/05/11 10:41:35;;;;;;;90.55;65.30;;;;;;;13.95;97.48;101477.94;5070965;28;20055;-64
2023/05/11 10:44:18;;;;;;;;;;;;;;;14.11;97.69;101475.94;5070866;28;20115;-64
2023/05/11 10:47:10;;;;;;;98.50;66.72;;;;;;;14.00;98.42;101478.47;5070052;28;20371;-64
2023/05/11 10:50:11;;;;;;;109.05;68.03;;;;;;;14.12;97.70;101466.09;5104474;28;21638;-64
2023/05/11 10:52:55;;;;;;;108.05;67.65;;;;;;;14.09;95.80;101470.69;5031855;28;20090;-64
2023/05/11 10:55:38;;;;;;;104.28;67.88;;;;;;;14.22;95.22;101475.22;5103711;28;20071;-64
2023/05/11 10:58:45;;;;;;;108.20;68.00;;;;;;;14.41;96.45;101464.97;5110633;27;20120;-64
2023/05/11 11:01:30;;;;;;;107.63;67.55;;;;;;;14.59;95.52;101465.53;5070885;28;20048;-65
2023/05/11 11:03:58;;;;;;;96.90;64.38;;;;;;;14.62;92.54;101462.63;5069811;28;20078;-65